Time;durP1;ratioP1;P1;durP2;ratioP2;P2;SDS_P1;SDS_P2;PMS_P1;PMS_P2;Temp;Humidity;BMP_temperature;BMP_pressure;BME280_temperature;BME280_humidity;BME280_pressure;Samples;Min_cycle;Max_cycle;Signal;HPM_P1;HPM_P2
2021/04/24 00:00:11;;;;;;;5.53;2.90;;;;;;;4.99;87.71;99543.81;1748047;81;21180;-77
2021/04/24 00:02:42;;;;;;;7.22;3.85;;;;;;;5.01;87.73;99554.41;1728778;80;21157;-83
2021/04/24 00:05:26;;;;;;;6.70;3.45;;;;;;;4.95;87.08;99551.28;1728746;82;21160;-78
2021/04/24 00:08:02;;;;;;;9.28;4.05;;;;;;;4.94;87.41;99563.17;1746299;80;21160;-80
2021/04/24 00:10:32;;;;;;;8.88;3.92;;;;;;;4.90;87.03;99569.61;1753916;82;21194;-79
2021/04/24 00:13:00;;;;;;;8.50;4.47;;;;;;;4.87;87.32;99574.13;1744148;80;21155;-80
2021/04/24 00:15:31;;;;;;;8.55;3.83;;;;;;;4.86;87.63;99569.74;1740762;82;21543;-78
2021/04/24 00:18:04;;;;;;;7.67;3.33;;;;;;;4.89;87.03;99568.45;1739104;80;21250;-81
2021/04/24 00:20:32;;;;;;;7.90;3.70;;;;;;;4.84;87.26;99572.38;1718352;83;21657;-82
2021/04/24 00:23:00;;;;;;;8.55;4.10;;;;;;;4.77;87.05;99573.84;1732995;80;21151;-79
2021/04/24 00:25:28;;;;;;;7.15;3.70;;;;;;;4.75;87.42;99584.60;1741018;82;22039;-75
2021/04/24 00:27:57;;;;;;;7.37;4.10;;;;;;;4.72;87.39;99588.59;1733464;80;21492;-76
2021/04/24 00:30:25;;;;;;;8.35;3.60;;;;;;;4.70;86.73;99580.39;1727706;80;21192;-79
2021/04/24 00:32:53;;;;;;;7.50;3.15;;;;;;;4.65;87.05;99581.08;1749193;80;21197;-80
2021/04/24 00:35:21;;;;;;;;;;;;;;;4.64;87.60;99584.83;1757491;80;21553;-78
2021/04/24 00:37:49;;;;;;;6.72;3.25;;;;;;;4.63;87.49;99594.00;1751065;81;20198;-78
2021/04/24 00:40:18;;;;;;;9.70;3.65;;;;;;;4.59;87.31;99591.45;1729221;80;21276;-78
2021/04/24 00:42:48;;;;;;;7.00;3.20;;;;;;;4.53;87.52;99592.34;1720119;81;21171;-79
2021/04/24 00:45:16;;;;;;;;;;;;;;;4.48;87.63;99594.38;1741029;80;21673;-75
2021/04/24 00:47:44;;;;;;;7.10;3.42;;;;;;;4.46;88.11;99596.50;1740803;82;20201;-77
2021/04/24 00:50:19;;;;;;;5.03;2.60;;;;;;;4.43;87.52;99603.72;1729187;80;21669;-77
2021/04/24 00:52:47;;;;;;;5.92;2.90;;;;;;;4.43;87.95;99610.48;1728232;82;21627;-78
2021/04/24 00:55:15;;;;;;;5.40;2.77;;;;;;;4.39;87.29;99605.23;1748508;80;21850;-77
2021/04/24 00:57:43;;;;;;;6.97;3.30;;;;;;;4.37;87.60;99608.70;1758561;81;21223;-79
2021/04/24 01:00:14;;;;;;;7.03;2.98;;;;;;;4.40;88.01;99602.00;1740451;80;21137;-79
2021/04/24 01:02:41;;;;;;;5.33;3.00;;;;;;;4.39;87.84;99598.45;1755095;82;21609;-77
2021/04/24 01:05:19;;;;;;;5.95;2.72;;;;;;;4.36;87.61;99594.84;1739412;80;21113;-79
2021/04/24 01:07:47;;;;;;;7.67;3.30;;;;;;;4.37;87.91;99592.44;1736035;80;21184;-79
2021/04/24 01:10:16;;;;;;;6.47;3.02;;;;;;;4.36;87.88;99584.00;1743610;80;21595;-79
2021/04/24 01:12:45;;;;;;;5.92;3.08;;;;;;;4.38;88.33;99583.24;1728615;83;21232;-81
2021/04/24 01:15:15;;;;;;;5.55;2.87;;;;;;;4.40;88.27;99582.48;1737990;80;21136;-78
2021/04/24 01:17:43;;;;;;;6.35;2.90;;;;;;;4.42;88.32;99579.05;1716776;83;21682;-79
2021/04/24 01:20:13;;;;;;;6.03;2.92;;;;;;;4.44;88.35;99563.39;1744238;81;21546;-78
2021/04/24 01:22:43;;;;;;;6.37;3.22;;;;;;;4.42;88.31;99573.63;1696844;82;21173;-78
2021/04/24 01:25:15;;;;;;;7.33;3.37;;;;;;;4.41;88.75;99577.90;1690277;84;21175;-82
2021/04/24 01:27:53;;;;;;;8.25;3.52;;;;;;;4.41;88.96;99571.96;1690310;82;21171;-79
2021/04/24 01:30:25;;;;;;;6.15;3.25;;;;;;;4.39;88.97;99567.82;1672958;84;21167;-79
2021/04/24 01:32:53;;;;;;;6.15;2.80;;;;;;;4.36;89.36;99579.10;1674673;83;21160;-78
2021/04/24 01:35:24;;;;;;;6.40;2.92;;;;;;;4.39;89.49;99571.36;1697008;83;21181;-79
2021/04/24 01:37:52;;;;;;;5.53;3.08;;;;;;;4.37;89.68;99579.41;1684556;82;21666;-78
2021/04/24 01:40:22;;;;;;;6.25;3.00;;;;;;;4.33;89.47;99580.38;1701024;83;21605;-77
2021/04/24 01:42:50;;;;;;;5.55;2.87;;;;;;;4.33;89.67;99585.80;1702376;83;21170;-80
2021/04/24 01:45:21;;;;;;;5.45;3.10;;;;;;;4.33;89.28;99579.02;1695680;84;21151;-78
2021/04/24 01:47:49;;;;;;;5.80;2.80;;;;;;;4.31;89.22;99585.20;1695980;83;21184;-77
2021/04/24 01:50:26;;;;;;;6.55;3.10;;;;;;;4.35;89.42;99582.88;1707760;83;21153;-80
2021/04/24 01:52:55;;;;;;;6.33;3.10;;;;;;;4.37;88.62;99580.25;1686691;83;21234;-81
2021/04/24 01:55:26;;;;;;;6.40;2.87;;;;;;;4.37;88.56;99577.54;1691445;84;21152;-82
2021/04/24 01:57:55;;;;;;;6.08;2.80;;;;;;;4.38;88.64;99579.70;1681305;84;21163;-82
2021/04/24 02:00:29;;;;;;;;;;;;;;;4.38;88.51;99583.24;1666495;84;21271;-82
2021/04/24 02:02:58;;;;;;;5.72;2.80;;;;;;;4.39;88.64;99586.27;1705055;83;20188;-82
2021/04/24 02:05:26;;;;;;;6.50;2.92;;;;;;;4.37;88.75;99585.67;1705279;83;21157;-79
2021/04/24 02:08:15;;;;;;;6.35;3.10;;;;;;;4.39;88.50;99591.69;1686413;83;21172;-80
2021/04/24 02:10:49;;;;;;;5.58;2.83;;;;;;;4.36;88.49;99590.77;1682855;84;21164;-85
2021/04/24 02:13:20;;;;;;;6.40;3.12;;;;;;;4.38;88.29;99593.24;1672959;83;21275;-85
2021/04/24 02:15:49;;;;;;;6.30;2.87;;;;;;;4.39;88.58;99593.56;1707423;83;21160;-85
2021/04/24 02:18:17;;;;;;;5.55;2.87;;;;;;;4.40;88.63;99597.94;1690914;82;21283;-87
2021/04/24 02:20:45;;;;;;;5.62;2.92;;;;;;;4.41;88.55;99590.09;1714316;82;21197;-78
2021/04/24 02:23:14;;;;;;;5.80;3.08;;;;;;;4.41;88.74;99596.34;1689848;85;21661;-80
2021/04/24 02:25:46;;;;;;;4.25;2.52;;;;;;;4.42;88.61;99592.59;1701180;83;21168;-81
2021/04/24 02:28:14;;;;;;;6.05;3.12;;;;;;;4.43;88.37;99601.01;1718719;83;21164;-81
2021/04/24 02:30:44;;;;;;;6.62;3.02;;;;;;;4.42;88.30;99588.53;1660434;84;21162;-79
2021/04/24 02:33:12;;;;;;;4.65;2.95;;;;;;;4.45;88.36;99590.77;1691017;84;21625;-80
2021/04/24 02:35:56;;;;;;;5.55;2.92;;;;;;;4.46;88.39;99587.53;1690695;82;21132;-81
2021/04/24 02:38:31;;;;;;;6.58;3.08;;;;;;;4.49;88.30;99593.34;1705501;84;21677;-79
2021/04/24 02:41:03;;;;;;;8.23;2.80;;;;;;;4.53;88.28;99586.12;1698795;81;21172;-79
2021/04/24 02:43:31;;;;;;;6.15;3.02;;;;;;;4.56;87.87;99584.30;1690816;84;21644;-79
2021/04/24 02:46:01;;;;;;;7.92;2.98;;;;;;;4.54;87.75;99587.77;1701408;81;21153;-80
2021/04/24 02:48:29;;;;;;;5.67;2.65;;;;;;;4.53;88.04;99592.90;1725278;83;21176;-79
2021/04/24 02:50:57;;;;;;;6.65;2.77;;;;;;;4.52;88.10;99592.59;1722579;81;21244;-78
2021/04/24 02:53:25;;;;;;;7.33;3.00;;;;;;;4.52;88.33;99598.00;1703312;83;21372;-76
2021/04/24 02:55:54;;;;;;;5.30;2.87;;;;;;;4.51;88.23;99605.30;1695508;81;21645;-79
2021/04/24 02:58:22;;;;;;;5.83;3.15;;;;;;;4.53;88.36;99615.94;1685371;84;21154;-79
2021/04/24 03:00:50;;;;;;;6.03;3.25;;;;;;;4.56;88.21;99626.30;1685283;84;21175;-81
2021/04/24 03:03:18;;;;;;;6.30;2.80;;;;;;;4.58;88.20;99627.73;1685429;82;21203;-79
2021/04/24 03:05:46;;;;;;;7.03;3.10;;;;;;;4.60;88.02;99628.36;1685538;85;21583;-79
2021/04/24 03:08:15;;;;;;;5.80;2.92;;;;;;;4.63;87.92;99631.15;1657134;83;21130;-78
2021/04/24 03:10:43;;;;;;;5.10;2.80;;;;;;;4.66;87.81;99632.02;1685597;84;21209;-80
2021/04/24 03:13:11;;;;;;;6.55;3.30;;;;;;;4.66;87.93;99634.22;1689739;82;21576;-80
2021/04/24 03:15:40;;;;;;;6.90;2.92;;;;;;;4.66;87.87;99646.93;1695037;84;21191;-79
2021/04/24 03:18:10;;;;;;;5.97;3.10;;;;;;;4.68;88.15;99644.85;1707549;81;21151;-80
2021/04/24 03:20:37;;;;;;;6.95;3.08;;;;;;;4.67;87.79;99644.53;1708444;84;21189;-79
2021/04/24 03:23:07;;;;;;;6.50;3.10;;;;;;;4.66;87.65;99643.70;1697109;83;21171;-78
2021/04/24 03:25:38;;;;;;;7.80;2.70;;;;;;;4.67;87.85;99640.47;1680288;84;21280;-81
2021/04/24 03:28:06;;;;;;;7.80;3.00;;;;;;;4.70;87.61;99645.45;1708512;82;21130;-80
2021/04/24 03:30:34;;;;;;;7.33;2.87;;;;;;;4.70;87.71;99647.64;1699545;84;21145;-81
2021/04/24 03:33:02;;;;;;;7.97;2.90;;;;;;;4.70;87.22;99650.35;1683110;83;21228;-81
2021/04/24 03:35:30;;;;;;;8.00;3.00;;;;;;;4.69;87.12;99651.39;1666343;85;21167;-81
2021/04/24 03:37:58;;;;;;;6.45;3.12;;;;;;;4.71;87.35;99655.22;1709927;84;21586;-80
2021/04/24 03:40:26;;;;;;;6.37;3.08;;;;;;;4.69;86.95;99651.91;1700903;82;21699;-79
2021/04/24 03:42:56;;;;;;;5.37;2.55;;;;;;;4.69;87.06;99661.40;1693659;85;21175;-81
2021/04/24 03:45:24;;;;;;;5.73;2.60;;;;;;;4.71;87.34;99666.06;1698547;82;21321;-81
2021/04/24 03:47:54;;;;;;;7.17;3.00;;;;;;;4.76;87.61;99672.47;1679606;85;21260;-81
2021/04/24 03:50:24;;;;;;;6.60;3.47;;;;;;;4.82;87.58;99677.53;1679468;83;21204;-80
2021/04/24 03:52:53;;;;;;;12.35;3.90;;;;;;;4.89;87.17;99678.27;1721122;83;21120;-81
2021/04/24 03:55:23;;;;;;;8.83;3.80;;;;;;;4.91;87.08;99674.28;1695379;82;21619;-80
2021/04/24 03:57:54;;;;;;;7.50;3.00;;;;;;;4.93;86.74;99684.37;1684954;85;21183;-79
2021/04/24 04:00:25;;;;;;;9.48;3.30;;;;;;;4.95;86.88;99680.09;1684793;82;21163;-80
2021/04/24 04:03:00;;;;;;;5.78;3.20;;;;;;;4.98;86.54;99684.52;1694806;84;21607;-81
2021/04/24 04:05:39;;;;;;;7.62;3.02;;;;;;;5.04;86.27;99682.80;1705738;81;21185;-81
2021/04/24 04:08:13;;;;;;;6.30;3.05;;;;;;;5.10;86.60;99683.25;1696716;84;21164;-80
2021/04/24 04:10:44;;;;;;;8.18;3.25;;;;;;;5.17;86.25;99682.64;1693131;83;21785;-79
2021/04/24 04:13:13;;;;;;;;;;;;;;;5.21;86.50;99677.08;1694179;84;21177;-80
2021/04/24 04:15:41;;;;;;;7.60;3.60;;;;;;;5.27;86.21;99685.64;1717235;82;20252;-82
2021/04/24 04:18:17;;;;;;;12.73;4.45;;;;;;;5.31;86.08;99686.86;1734625;83;21160;-85
2021/04/24 04:20:49;;;;;;;10.75;4.87;;;;;;;5.33;85.42;99696.12;1720330;83;21170;-78
2021/04/24 04:23:19;;;;;;;9.13;4.75;;;;;;;5.39;85.98;99693.30;1684443;85;21199;-79
2021/04/24 04:25:47;;;;;;;10.25;4.78;;;;;;;5.44;85.43;99694.80;1701875;83;21722;-84
2021/04/24 04:28:15;;;;;;;8.83;4.58;;;;;;;5.53;85.67;99696.16;1705073;84;21216;-80
2021/04/24 04:30:43;;;;;;;12.88;5.83;;;;;;;5.58;85.40;99703.09;1705960;84;21597;-84
2021/04/24 04:33:11;;;;;;;9.10;4.22;;;;;;;5.60;85.46;99705.04;1687205;83;21179;-80
2021/04/24 04:35:40;;;;;;;7.87;4.08;;;;;;;5.62;84.75;99712.42;1686373;84;21234;-80
2021/04/24 04:38:08;;;;;;;9.15;4.87;;;;;;;5.63;85.19;99704.58;1704405;82;21124;-85
2021/04/24 04:40:36;;;;;;;8.35;4.33;;;;;;;5.67;85.30;99713.08;1697494;83;21324;-78
2021/04/24 04:43:05;;;;;;;8.10;4.67;;;;;;;5.71;85.53;99718.37;1690247;82;21202;-76
2021/04/24 04:45:33;;;;;;;8.40;4.20;;;;;;;5.72;84.82;99712.70;1706880;84;21730;-78
2021/04/24 04:48:01;;;;;;;7.50;4.15;;;;;;;5.68;84.48;99714.75;1695327;82;21196;-76
2021/04/24 04:50:33;;;;;;;8.35;4.40;;;;;;;5.64;84.44;99713.01;1706484;84;21172;-79
2021/04/24 04:53:01;;;;;;;9.10;5.28;;;;;;;5.61;84.75;99714.85;1699180;82;21648;-79
2021/04/24 04:55:30;;;;;;;8.93;5.22;;;;;;;5.61;84.95;99722.16;1695661;84;21139;-84
2021/04/24 05:00:37;;;;;;;11.18;4.70;;;;;;;5.72;84.45;99717.29;1813168;77;22202;-81
2021/04/24 05:03:05;;;;;;;8.90;5.03;;;;;;;5.67;83.44;99715.80;1752980;80;21325;-78
2021/04/24 05:05:33;;;;;;;10.75;5.22;;;;;;;5.73;84.19;99723.03;1720063;83;22350;-80
2021/04/24 05:08:01;;;;;;;10.40;5.35;;;;;;;5.79;83.75;99716.69;1743332;82;21164;-79
2021/04/24 05:10:30;;;;;;;10.53;5.37;;;;;;;5.83;83.59;99719.75;1723666;82;21532;-77
2021/04/24 05:12:58;;;;;;;14.75;5.37;;;;;;;5.89;83.27;99724.31;1755270;82;21681;-78
2021/04/24 05:15:25;;;;;;;9.98;5.72;;;;;;;5.96;82.54;99710.09;1725563;80;21670;-81
2021/04/24 05:17:53;;;;;;;11.80;5.30;;;;;;;6.06;82.88;99707.64;1737330;82;21123;-79
2021/04/24 05:20:21;;;;;;;12.80;5.08;;;;;;;6.17;81.36;99706.84;1730710;80;21595;-78
2021/04/24 05:22:50;;;;;;;11.33;5.60;;;;;;;6.21;80.93;99712.94;1708218;81;21147;-82
2021/04/24 05:25:18;;;;;;;9.68;4.75;;;;;;;6.28;80.63;99707.38;1756307;80;21155;-82
2021/04/24 05:27:47;;;;;;;9.63;4.95;;;;;;;6.31;80.20;99711.00;1755115;81;21166;-83
2021/04/24 05:30:18;;;;;;;9.55;4.65;;;;;;;6.37;80.31;99705.99;1766906;80;21144;-81
2021/04/24 05:32:47;;;;;;;11.18;4.92;;;;;;;6.39;79.40;99718.29;1780608;80;21196;-80
2021/04/24 05:35:15;;;;;;;10.95;4.12;;;;;;;6.44;79.34;99727.09;1746376;80;21153;-81
2021/04/24 05:37:43;;;;;;;8.75;4.70;;;;;;;6.47;78.22;99723.91;1729534;81;21177;-80
2021/04/24 05:40:12;;;;;;;8.88;4.37;;;;;;;6.50;78.68;99734.84;1756599;80;21279;-79
2021/04/24 05:42:40;;;;;;;8.63;4.45;;;;;;;6.58;78.56;99735.31;1755036;81;21187;-79
2021/04/24 05:45:11;;;;;;;11.22;4.60;;;;;;;6.69;78.18;99737.75;1753715;80;21128;-82
2021/04/24 05:47:49;;;;;;;14.25;4.33;;;;;;;6.76;77.28;99734.37;1719805;80;21132;-80
2021/04/24 05:50:20;;;;;;;9.43;4.30;;;;;;;6.80;77.31;99728.77;1728223;81;21367;-80
2021/04/24 05:52:49;;;;;;;9.95;4.00;;;;;;;6.85;76.56;99729.72;1745006;80;21136;-83
2021/04/24 05:55:21;;;;;;;9.58;3.45;;;;;;;6.92;76.01;99739.11;1757883;80;21263;-82
2021/04/24 05:57:50;;;;;;;9.88;3.80;;;;;;;6.89;70.99;99733.61;1754332;80;21688;-83
2021/04/24 06:00:20;;;;;;;6.15;2.80;;;;;;;6.94;73.24;99737.81;1754813;80;21160;-80
2021/04/24 06:02:48;;;;;;;9.40;3.75;;;;;;;6.98;70.71;99729.45;1734126;80;21148;-80
2021/04/24 06:05:17;;;;;;;10.60;3.47;;;;;;;6.94;68.12;99731.53;1756777;81;21603;-80
2021/04/24 06:07:47;;;;;;;10.72;3.62;;;;;;;6.95;69.79;99731.31;1753239;80;21655;-79
2021/04/24 06:10:17;;;;;;;7.22;3.22;;;;;;;6.98;67.46;99728.09;1757614;81;21120;-85
2021/04/24 06:12:46;;;;;;;8.43;3.75;;;;;;;7.02;67.36;99729.81;1755146;80;21128;-77
2021/04/24 06:15:15;;;;;;;8.63;3.10;;;;;;;7.04;67.53;99735.31;1694339;83;21219;-77
2021/04/24 06:17:43;;;;;;;8.10;3.08;;;;;;;7.10;67.20;99734.06;1720777;82;21699;-78
2021/04/24 06:20:12;;;;;;;7.55;2.90;;;;;;;7.11;66.39;99730.30;1716268;83;21362;-81
2021/04/24 06:22:41;;;;;;;7.90;3.03;;;;;;;7.18;67.47;99737.27;1700297;83;21643;-78
2021/04/24 06:25:11;;;;;;;8.28;2.92;;;;;;;7.24;67.32;99732.20;1711289;83;21153;-80
2021/04/24 06:27:39;;;;;;;7.80;3.33;;;;;;;7.31;66.64;99738.34;1704758;83;21181;-80
2021/04/24 06:30:09;;;;;;;6.90;2.90;;;;;;;7.33;65.95;99740.84;1704645;83;21553;-80
2021/04/24 06:32:37;;;;;;;7.40;2.80;;;;;;;7.36;66.15;99742.53;1700994;83;21172;-78
2021/04/24 06:35:06;;;;;;;7.22;3.10;;;;;;;7.38;62.98;99747.22;1700407;82;21159;-80
2021/04/24 06:37:34;;;;;;;6.58;2.80;;;;;;;7.39;63.49;99748.86;1697672;84;21177;-79
2021/04/24 06:40:07;;;;;;;5.37;2.85;;;;;;;7.47;63.70;99753.94;1699789;83;21164;-78
2021/04/24 06:42:36;;;;;;;5.25;2.05;;;;;;;7.60;63.08;99750.11;1715466;82;21155;-79
2021/04/24 06:45:06;;;;;;;;;;;;;;;7.67;58.99;99756.24;1723477;82;21684;-80
2021/04/24 06:47:34;;;;;;;6.05;2.12;;;;;;;7.68;57.79;99762.83;1698178;84;20406;-80
2021/04/24 06:50:03;;;;;;;7.72;2.60;;;;;;;7.67;59.06;99752.98;1689480;83;21169;-81
2021/04/24 06:52:31;;;;;;;5.00;2.08;;;;;;;7.71;58.58;99752.52;1699222;84;21571;-81
2021/04/24 06:54:59;;;;;;;5.37;2.17;;;;;;;7.67;55.27;99754.35;1705064;82;21221;-82
2021/04/24 06:57:27;;;;;;;5.33;2.08;;;;;;;7.67;56.20;99759.80;1680653;83;21378;-82
2021/04/24 06:59:55;;;;;;;4.92;2.22;;;;;;;7.69;57.59;99749.48;1698009;83;21156;-84
2021/04/24 07:02:23;;;;;;;4.37;1.77;;;;;;;7.77;58.26;99751.00;1694959;84;21165;-82
2021/04/24 07:04:52;;;;;;;6.25;2.08;;;;;;;7.80;55.97;99751.88;1693682;83;21152;-83
2021/04/24 07:07:19;;;;;;;5.22;1.67;;;;;;;7.80;54.07;99750.52;1695588;83;21148;-76
2021/04/24 07:09:47;;;;;;;5.15;1.87;;;;;;;7.76;52.07;99750.72;1686890;83;21165;-80
2021/04/24 07:12:17;;;;;;;5.65;1.75;;;;;;;7.71;52.48;99750.63;1703607;82;21186;-82
2021/04/24 07:14:45;;;;;;;4.20;1.80;;;;;;;7.74;53.18;99747.95;1702183;82;21195;-81
2021/04/24 07:17:14;;;;;;;4.12;1.55;;;;;;;7.73;54.35;99749.84;1697229;82;21238;-78
2021/04/24 07:19:43;;;;;;;;;;;;;;;7.76;54.22;99745.80;1702731;82;21637;-86
2021/04/24 07:22:13;;;;;;;5.15;1.70;;;;;;;7.81;54.32;99759.52;1698836;82;20239;-83
2021/04/24 07:24:44;;;;;;;5.40;2.00;;;;;;;7.84;54.20;99769.41;1694328;84;21165;-84
2021/04/24 07:27:14;;;;;;;6.00;2.10;;;;;;;7.91;53.31;99767.37;1701920;82;21992;-78
2021/04/24 07:29:42;;;;;;;6.53;1.60;;;;;;;8.00;51.64;99768.62;1707087;84;21627;-83
2021/04/24 07:32:11;;;;;;;4.33;2.00;;;;;;;8.12;51.77;99764.50;1704308;82;21212;-82
2021/04/24 07:34:38;;;;;;;6.50;1.62;;;;;;;8.24;53.29;99767.45;1705058;83;21134;-82
2021/04/24 07:37:07;;;;;;;5.90;1.90;;;;;;;8.37;53.02;99775.06;1684877;83;21200;-77
2021/04/24 07:39:34;;;;;;;3.80;1.57;;;;;;;8.43;51.88;99753.07;1696637;83;21156;-76
2021/04/24 07:42:03;;;;;;;8.05;1.80;;;;;;;8.40;50.36;99756.29;1700080;83;21750;-78
2021/04/24 07:44:32;;;;;;;4.87;1.60;;;;;;;8.39;52.46;99756.55;1698039;83;21772;-82
2021/04/24 07:46:59;;;;;;;4.37;1.55;;;;;;;8.40;51.65;99774.58;1704533;83;21568;-78
2021/04/24 07:49:28;;;;;;;6.53;1.60;;;;;;;8.41;52.09;99768.03;1696089;83;21786;-78
2021/04/24 07:51:55;;;;;;;4.00;1.67;;;;;;;8.45;51.37;99771.94;1699874;83;21204;-78
2021/04/24 07:54:23;;;;;;;5.30;1.85;;;;;;;8.52;52.21;99764.41;1695970;83;21157;-80
2021/04/24 07:56:51;;;;;;;4.40;1.87;;;;;;;8.60;51.15;99772.19;1692375;83;21616;-79
2021/04/24 07:59:19;;;;;;;4.92;1.95;;;;;;;8.69;51.72;99770.70;1699035;83;21165;-76
2021/04/24 08:01:47;;;;;;;7.58;2.20;;;;;;;8.81;52.27;99774.99;1696541;84;21184;-77
2021/04/24 08:04:15;;;;;;;11.93;2.27;;;;;;;8.92;52.02;99767.80;1697435;83;21591;-79
2021/04/24 08:06:43;;;;;;;7.25;1.90;;;;;;;8.99;52.16;99775.27;1703983;84;21142;-81
2021/04/24 08:09:12;;;;;;;5.50;2.00;;;;;;;8.92;50.61;99760.44;1695293;82;21589;-75
2021/04/24 08:11:40;;;;;;;5.37;1.92;;;;;;;8.89;51.13;99759.57;1706535;82;21227;-77
2021/04/24 08:14:08;;;;;;;7.45;2.05;;;;;;;8.99;49.68;99763.52;1706209;82;21148;-78
2021/04/24 08:16:37;;;;;;;5.22;1.90;;;;;;;9.04;50.02;99766.32;1698100;84;21255;-78
2021/04/24 08:19:06;;;;;;;7.33;2.17;;;;;;;9.12;50.63;99762.64;1695228;82;21651;-80
2021/04/24 08:21:34;;;;;;;5.62;1.67;;;;;;;9.16;49.41;99762.41;1694382;84;21277;-78
2021/04/24 08:24:02;;;;;;;6.85;2.20;;;;;;;9.20;49.62;99766.31;1697187;82;21232;-81
2021/04/24 08:26:30;;;;;;;7.78;1.90;;;;;;;9.14;47.72;99761.84;1691868;83;21592;-79
2021/04/24 08:28:58;;;;;;;7.67;1.80;;;;;;;8.94;47.52;99761.02;1677571;83;21145;-81
2021/04/24 08:31:26;;;;;;;5.00;1.60;;;;;;;8.93;47.78;99760.71;1707876;83;21164;-79
2021/04/24 08:33:56;;;;;;;6.20;2.00;;;;;;;9.05;48.56;99768.82;1702150;82;21206;-81
2021/04/24 08:36:26;;;;;;;4.20;1.72;;;;;;;9.11;48.13;99758.81;1693374;83;21445;-82
2021/04/24 08:38:54;;;;;;;4.85;2.00;;;;;;;9.09;47.57;99764.50;1690706;83;21316;-80
2021/04/24 08:41:24;;;;;;;3.85;1.67;;;;;;;8.91;47.48;99769.69;1690993;83;21159;-80
2021/04/24 08:43:56;;;;;;;4.90;1.62;;;;;;;8.82;48.36;99760.81;1695437;83;21650;-79
2021/04/24 08:46:22;;;;;;;4.42;1.70;;;;;;;8.86;49.89;99759.23;1708337;82;21170;-81
2021/04/24 08:48:52;;;;;;;5.15;1.80;;;;;;;8.94;49.85;99761.55;1675878;84;21123;-81
2021/04/24 08:51:20;;;;;;;7.10;1.70;;;;;;;8.99;47.79;99770.34;1696275;83;21164;-78
2021/04/24 08:53:50;;;;;;;5.35;1.72;;;;;;;9.09;46.18;99762.30;1703122;83;21145;-77
2021/04/24 08:56:23;;;;;;;7.30;1.87;;;;;;;9.24;45.33;99752.96;1690527;81;21765;-79
2021/04/24 08:58:49;;;;;;;5.08;1.87;;;;;;;9.30;43.48;99760.99;1703119;84;21267;-79
2021/04/24 09:01:17;;;;;;;5.87;1.80;;;;;;;9.33;43.31;99764.59;1708875;83;21189;-76
2021/04/24 09:03:45;;;;;;;6.08;1.87;;;;;;;9.30;44.05;99754.70;1691581;84;21190;-78
2021/04/24 09:06:19;;;;;;;4.45;1.90;;;;;;;9.27;44.07;99762.86;1718798;82;21149;-79
2021/04/24 09:08:53;;;;;;;5.37;1.70;;;;;;;9.18;45.33;99763.02;1707272;83;21148;-76
2021/04/24 09:11:25;;;;;;;5.20;2.08;;;;;;;9.16;44.73;99784.25;1703319;82;21670;-81
2021/04/24 09:14:03;;;;;;;4.60;1.42;;;;;;;9.19;45.63;99767.91;1702572;84;21263;-78
2021/04/24 09:16:34;;;;;;;3.08;1.42;;;;;;;9.32;44.39;99773.84;1700290;83;21169;-79
2021/04/24 09:19:35;;;;;;;6.30;1.60;;;;;;;9.48;46.95;99768.89;1693411;83;21168;-80
2021/04/24 09:22:20;;;;;;;6.28;2.65;;;;;;;9.61;46.08;99769.05;1697905;83;21136;-76
2021/04/24 09:24:51;;;;;;;5.95;2.00;;;;;;;9.67;45.65;99773.48;1699993;83;21279;-80
2021/04/24 09:27:19;;;;;;;4.17;1.80;;;;;;;9.58;45.28;99783.22;1698732;83;21157;-80
2021/04/24 09:29:48;;;;;;;4.15;1.72;;;;;;;9.48;45.12;99778.45;1698761;83;21975;-77
2021/04/24 09:32:22;;;;;;;4.78;1.70;;;;;;;9.37;44.85;99778.55;1677132;84;21608;-79
2021/04/24 09:34:52;;;;;;;5.53;1.60;;;;;;;9.26;44.96;99780.31;1693355;83;21691;-78
2021/04/24 09:37:23;;;;;;;3.80;1.47;;;;;;;9.22;44.04;99806.48;1695097;83;21217;-77
2021/04/24 09:39:53;;;;;;;4.28;1.27;;;;;;;9.13;42.79;99790.24;1687817;83;21215;-78
2021/04/24 09:42:40;;;;;;;4.08;1.30;;;;;;;9.09;42.41;99792.33;1694008;83;21520;-84
2021/04/24 09:45:38;;;;;;;5.10;1.70;;;;;;;9.09;43.41;99789.61;1694411;83;21615;-81
2021/04/24 09:48:07;;;;;;;5.90;1.30;;;;;;;9.08;43.49;99799.72;1692479;83;21161;-81
2021/04/24 09:50:37;;;;;;;5.67;1.65;;;;;;;9.07;43.10;99788.50;1667608;84;21672;-76
2021/04/24 09:53:21;;;;;;;4.28;1.70;;;;;;;9.08;43.85;99803.81;1696130;84;21627;-80
2021/04/24 09:55:54;;;;;;;4.85;1.60;;;;;;;9.09;44.56;99801.89;1689836;83;21172;-73
2021/04/24 09:58:31;;;;;;;3.42;1.20;;;;;;;9.08;43.71;99802.98;1696001;84;21161;-75
2021/04/24 10:01:24;;;;;;;4.95;1.45;;;;;;;9.09;43.57;99797.80;1697117;83;21322;-78
2021/04/24 10:03:55;;;;;;;3.20;1.20;;;;;;;9.07;42.70;99801.31;1692763;84;21219;-80
2021/04/24 10:06:38;;;;;;;3.10;1.30;;;;;;;8.93;42.68;99795.36;1693994;83;21564;-76
2021/04/24 10:09:26;;;;;;;3.42;1.32;;;;;;;8.97;43.20;99799.80;1667139;84;21218;-74
2021/04/24 10:12:10;;;;;;;4.87;1.20;;;;;;;9.07;42.03;99805.41;1697576;83;21169;-77
2021/04/24 10:14:45;;;;;;;6.65;2.30;;;;;;;9.03;40.77;99802.91;1697076;82;21155;-75
2021/04/24 10:17:15;;;;;;;4.62;1.30;;;;;;;8.93;41.44;99803.02;1699125;84;21157;-75
2021/04/24 10:19:47;;;;;;;3.50;1.42;;;;;;;9.02;42.28;99789.79;1704114;84;21181;-75
2021/04/24 10:22:17;;;;;;;4.85;1.10;;;;;;;9.13;42.06;99801.16;1694855;83;21176;-74
2021/04/24 10:24:46;;;;;;;6.05;1.42;;;;;;;9.16;41.24;99791.08;1692254;84;21585;-75
2021/04/24 10:27:16;;;;;;;4.37;1.22;;;;;;;9.22;39.05;99804.27;1698756;83;21611;-77
2021/04/24 10:29:45;;;;;;;3.40;1.20;;;;;;;9.28;40.08;99793.20;1698399;83;21276;-81
2021/04/24 10:32:14;;;;;;;6.83;1.47;;;;;;;9.40;38.58;99802.10;1696309;83;21153;-81
2021/04/24 10:34:42;;;;;;;4.05;1.75;;;;;;;9.41;39.91;99811.93;1690060;83;21544;-80
2021/04/24 10:37:10;;;;;;;7.85;1.60;;;;;;;9.34;39.27;99815.39;1699925;83;21191;-83
2021/04/24 10:39:39;;;;;;;3.83;1.20;;;;;;;9.22;39.79;99816.03;1695969;83;21268;-79
2021/04/24 10:42:21;;;;;;;2.50;0.95;;;;;;;9.19;40.08;99816.53;1703376;83;21160;-85
2021/04/24 10:44:56;;;;;;;4.65;1.20;;;;;;;9.13;39.77;99807.98;1714784;82;21184;-81
2021/04/24 10:47:42;;;;;;;4.37;1.20;;;;;;;9.14;41.55;99810.98;1709423;82;21140;-78
2021/04/24 10:50:16;;;;;;;3.90;1.20;;;;;;;9.32;41.52;99813.98;1668964;84;21186;-84
2021/04/24 10:52:45;;;;;;;3.80;1.15;;;;;;;9.52;40.03;99797.34;1704523;83;21163;-77
2021/04/24 10:55:16;;;;;;;;;;;;;;;9.68;41.08;99815.30;1707319;83;21200;-75
2021/04/24 10:57:48;;;;;;;3.08;1.15;;;;;;;9.82;41.92;99802.91;1706144;82;20181;-79
2021/04/24 11:00:23;;;;;;;3.45;1.37;;;;;;;9.90;40.38;99792.89;1703174;83;21173;-79
2021/04/24 11:02:56;;;;;;;2.30;1.00;;;;;;;9.85;38.47;99810.07;1692646;83;21649;-75
2021/04/24 11:05:45;;;;;;;4.10;1.20;;;;;;;9.54;39.11;99814.30;1688125;84;21356;-76
2021/04/24 11:08:22;;;;;;;3.72;1.07;;;;;;;9.22;39.97;99815.20;1700085;83;21112;-77
2021/04/24 11:11:06;;;;;;;5.42;1.32;;;;;;;9.01;40.73;99841.35;1702839;83;21331;-75
2021/04/24 11:13:38;;;;;;;2.47;1.10;;;;;;;8.85;39.74;99836.73;1702432;83;21200;-76
2021/04/24 11:16:11;;;;;;;4.53;1.20;;;;;;;8.79;39.64;99833.09;1675087;84;21154;-79
2021/04/24 11:18:45;;;;;;;3.55;1.15;;;;;;;8.81;40.54;99821.38;1699057;83;21246;-77
2021/04/24 11:21:29;;;;;;;4.17;1.40;;;;;;;8.80;43.08;99816.19;1703546;83;21148;-81
2021/04/24 11:24:02;;;;;;;7.22;2.52;;;;;;;8.91;45.88;99827.54;1710174;82;21147;-79
2021/04/24 11:26:44;;;;;;;3.75;1.30;;;;;;;9.07;47.33;99830.81;1670951;85;21208;-82
2021/04/24 11:29:21;;;;;;;5.47;1.10;;;;;;;9.19;43.88;99815.16;1650738;84;21414;-77
2021/04/24 11:31:59;;;;;;;6.40;2.55;;;;;;;9.28;45.88;99830.06;1706164;83;21559;-75
2021/04/24 11:34:41;;;;;;;7.60;1.60;;;;;;;9.46;47.39;99828.95;1708581;82;21604;-81
2021/04/24 11:37:24;;;;;;;5.22;1.25;;;;;;;9.54;45.46;99837.53;1708289;82;21145;-81
2021/04/24 11:40:22;;;;;;;8.10;1.30;;;;;;;9.41;45.97;99851.53;1703763;82;21592;-82
2021/04/24 11:43:02;;;;;;;3.58;1.30;;;;;;;9.30;48.55;99855.22;1715062;82;21155;-84
2021/04/24 11:45:55;;;;;;;6.50;1.40;;;;;;;9.20;46.33;99852.86;1706745;82;21133;-79
2021/04/24 11:48:51;;;;;;;3.30;1.55;;;;;;;9.13;45.59;99848.11;1692721;84;21188;-82
2021/04/24 11:51:42;;;;;;;6.28;1.40;;;;;;;9.13;45.08;99843.48;1670335;83;21208;-84
2021/04/24 11:54:28;;;;;;;3.90;1.50;;;;;;;9.21;45.45;99843.04;1720628;83;21163;-86
2021/04/24 11:56:58;;;;;;;4.90;2.05;;;;;;;9.29;44.44;99834.42;1681963;83;21121;-82
2021/04/24 11:59:36;;;;;;;5.20;1.65;;;;;;;9.31;44.01;99838.30;1708379;82;21672;-82
2021/04/24 12:02:14;;;;;;;3.02;1.20;;;;;;;9.06;43.70;99840.63;1705707;83;21295;-82
2021/04/24 12:04:43;;;;;;;3.62;1.07;;;;;;;8.82;44.02;99842.69;1722538;82;21171;-81